createdAt,value
2018-09-24T00:02:26.526Z,0.70
2018-09-24T00:04:54.699Z,0.70
2018-09-24T00:07:22.877Z,0.80
2018-09-24T00:09:51.042Z,0.97
2018-09-24T00:12:19.208Z,0.83
2018-09-24T00:14:47.386Z,0.80
2018-09-24T00:17:15.557Z,0.80
2018-09-24T00:19:43.734Z,0.83
2018-09-24T00:22:11.913Z,0.70
2018-09-24T00:24:40.095Z,0.80
2018-09-24T00:27:08.278Z,0.90
2018-09-24T00:29:36.450Z,0.83
2018-09-24T00:32:04.630Z,1.27
2018-09-24T00:34:32.798Z,0.77
2018-09-24T00:37:00.971Z,0.80
2018-09-24T00:39:29.147Z,0.80
2018-09-24T00:41:57.310Z,1.00
2018-09-24T00:44:25.482Z,1.00
2018-09-24T00:46:53.651Z,0.97
2018-09-24T00:49:21.827Z,1.20
2018-09-24T00:51:49.998Z,0.80
2018-09-24T00:54:18.170Z,1.23
2018-09-24T00:56:46.361Z,1.17
2018-09-24T00:59:14.562Z,0.90
2018-09-24T01:01:42.729Z,1.10
2018-09-24T01:04:10.915Z,1.07
2018-09-24T01:06:39.103Z,1.10
2018-09-24T01:09:08.526Z,1.00
2018-09-24T01:11:36.701Z,1.10
2018-09-24T01:14:04.910Z,1.13
2018-09-24T01:16:33.088Z,1.10
2018-09-24T01:19:01.267Z,1.20
2018-09-24T01:21:29.430Z,0.93
2018-09-24T01:23:57.627Z,1.00
2018-09-24T01:26:25.810Z,1.13
2018-09-24T01:28:53.988Z,1.13
2018-09-24T01:31:22.202Z,1.37
2018-09-24T01:33:50.423Z,1.57
2018-09-24T01:36:18.587Z,1.00
2018-09-24T01:38:46.822Z,0.90
2018-09-24T01:41:14.998Z,1.07
2018-09-24T01:43:43.216Z,1.40
2018-09-24T01:46:11.410Z,1.10
2018-09-24T01:48:39.614Z,1.00
2018-09-24T01:51:07.777Z,1.00
2018-09-24T01:53:36.191Z,0.93
2018-09-24T01:56:04.369Z,0.80
2018-09-24T01:58:36.697Z,0.80
2018-09-24T02:01:05.235Z,0.70
2018-09-24T02:03:34.449Z,0.80
2018-09-24T02:06:03.277Z,0.90
2018-09-24T02:08:31.521Z,0.73
2018-09-24T02:10:59.694Z,0.77
2018-09-24T02:13:27.871Z,0.87
2018-09-24T02:15:56.050Z,0.87
2018-09-24T02:18:24.214Z,0.70
2018-09-24T02:20:52.392Z,1.23
2018-09-24T02:23:20.566Z,0.80
2018-09-24T02:25:48.738Z,1.43
2018-09-24T02:28:16.938Z,1.00
2018-09-24T02:30:45.103Z,1.00
2018-09-24T02:33:13.673Z,0.90
2018-09-24T02:35:47.602Z,1.00
2018-09-24T02:38:16.233Z,0.90
2018-09-24T02:40:44.434Z,0.90
2018-09-24T02:43:12.603Z,1.00
2018-09-24T02:45:40.777Z,0.90
2018-09-24T02:48:08.950Z,1.10
2018-09-24T02:50:39.038Z,1.00
2018-09-24T02:53:08.457Z,1.00
2018-09-24T02:55:36.654Z,0.90
2018-09-24T02:58:04.817Z,0.80
2018-09-24T03:00:33.001Z,0.90
2018-09-24T03:03:07.738Z,1.07
2018-09-24T03:05:35.921Z,0.90
2018-09-24T03:08:07.373Z,0.80
2018-09-24T03:10:35.794Z,1.10
2018-09-24T03:13:03.962Z,1.10
2018-09-24T03:15:36.588Z,1.20
2018-09-24T03:18:05.090Z,1.20
2018-09-24T03:20:38.618Z,1.00
2018-09-24T03:23:07.115Z,1.20
2018-09-24T03:25:35.337Z,1.10
2018-09-24T03:28:03.510Z,0.93
2018-09-24T03:30:32.753Z,1.17
2018-09-24T03:33:01.031Z,1.50
2018-09-24T03:35:29.312Z,1.37
2018-09-24T03:37:57.482Z,1.00
2018-09-24T03:40:25.735Z,1.07
2018-09-24T03:42:54.250Z,1.30
2018-09-24T03:45:22.450Z,1.00
2018-09-24T03:47:50.841Z,1.33
2018-09-24T03:50:19.051Z,1.30
2018-09-24T03:52:47.198Z,1.00
2018-09-24T03:55:15.438Z,1.20
2018-09-24T03:57:43.843Z,1.40
2018-09-24T04:00:12.258Z,1.20
2018-09-24T04:02:41.058Z,1.40
2018-09-24T04:05:14.670Z,1.10
2018-09-24T04:07:48.274Z,1.20
2018-09-24T04:10:21.871Z,1.43
2018-09-24T04:12:55.352Z,1.07
2018-09-24T04:15:29.044Z,1.23
2018-09-24T04:18:02.451Z,1.30
2018-09-24T04:20:36.146Z,1.00
2018-09-24T04:23:09.590Z,1.00
2018-09-24T04:25:43.354Z,1.13
2018-09-24T04:28:16.902Z,1.00
2018-09-24T04:30:50.522Z,1.00
2018-09-24T04:33:24.143Z,1.30
2018-09-24T04:35:57.745Z,1.00
2018-09-24T04:38:31.394Z,1.30
2018-09-24T04:41:04.938Z,1.65
2018-09-24T04:43:38.534Z,1.50
2018-09-24T04:46:12.306Z,1.50
2018-09-24T04:48:45.934Z,1.30
2018-09-24T04:51:19.368Z,1.00
2018-09-24T04:53:53.050Z,1.30
2018-09-24T04:56:26.720Z,1.30
2018-09-24T04:59:00.152Z,1.37
2018-09-24T05:01:33.782Z,1.20
2018-09-24T05:04:07.439Z,1.30
2018-09-24T05:06:41.133Z,1.00
2018-09-24T05:09:14.673Z,1.20
2018-09-24T05:11:48.323Z,1.33
2018-09-24T05:14:22.011Z,1.30
2018-09-24T05:16:55.413Z,1.23
2018-09-24T05:19:29.062Z,1.23
2018-09-24T05:22:02.714Z,1.10
2018-09-24T05:24:36.427Z,1.20
2018-09-24T05:27:09.984Z,1.50
2018-09-24T05:29:43.629Z,1.60
2018-09-24T05:32:17.163Z,1.67
2018-09-24T05:34:50.413Z,1.33
2018-09-24T05:37:23.965Z,1.43
2018-09-24T05:39:57.649Z,1.50
2018-09-24T05:42:31.204Z,1.77
2018-09-24T05:45:05.018Z,1.80
2018-09-24T05:47:38.733Z,1.40
2018-09-24T05:50:12.303Z,1.67
2018-09-24T05:52:46.030Z,1.73
2018-09-24T05:55:19.606Z,1.93
2018-09-24T05:57:52.982Z,2.13
2018-09-24T06:00:26.676Z,1.83
2018-09-24T06:03:00.270Z,2.20
2018-09-24T06:05:33.830Z,2.67
2018-09-24T06:08:07.250Z,2.73
2018-09-24T06:10:40.653Z,2.27
2018-09-24T06:13:14.329Z,2.40
2018-09-24T06:15:47.827Z,2.00
2018-09-24T06:18:21.494Z,2.30
2018-09-24T06:20:55.202Z,2.30
2018-09-24T06:23:28.861Z,2.53
2018-09-24T06:26:02.294Z,2.73
2018-09-24T06:28:35.681Z,2.60
2018-09-24T06:31:09.398Z,2.33
2018-09-24T06:33:42.914Z,2.60
2018-09-24T06:36:16.664Z,2.30
2018-09-24T06:38:50.265Z,1.97
2018-09-24T06:41:23.922Z,2.27
2018-09-24T06:43:57.578Z,2.27
2018-09-24T06:46:31.150Z,2.07
2018-09-24T06:49:04.790Z,3.50
2018-09-24T06:51:38.238Z,2.40
2018-09-24T06:54:11.913Z,2.43
2018-09-24T06:56:45.489Z,2.40
2018-09-24T06:59:19.049Z,2.70
2018-09-24T07:01:52.525Z,2.60
2018-09-24T07:04:26.168Z,1.93
2018-09-24T07:06:59.670Z,1.90
2018-09-24T07:09:33.021Z,2.50
2018-09-24T07:12:06.645Z,2.43
2018-09-24T07:14:40.366Z,2.43
2018-09-24T07:17:13.945Z,2.13
2018-09-24T07:19:47.502Z,2.20
2018-09-24T07:22:21.013Z,2.40
2018-09-24T07:24:54.670Z,1.90
2018-09-24T07:27:28.415Z,2.00
2018-09-24T07:30:02.047Z,2.00
2018-09-24T07:32:35.658Z,2.10
2018-09-24T07:35:09.234Z,2.43
2018-09-24T07:37:42.926Z,2.00
2018-09-24T07:40:16.462Z,1.83
2018-09-24T07:42:49.997Z,2.10
2018-09-24T07:45:23.674Z,2.23
2018-09-24T07:47:57.209Z,1.70
2018-09-24T07:50:30.778Z,2.67
2018-09-24T07:53:04.370Z,1.63
2018-09-24T07:55:38.085Z,1.80
2018-09-24T07:58:11.701Z,2.13
2018-09-24T08:00:45.370Z,1.60
2018-09-24T08:03:18.830Z,1.93
2018-09-24T08:05:52.357Z,2.00
2018-09-24T08:08:25.773Z,1.93
2018-09-24T08:10:59.482Z,1.50
2018-09-24T08:13:33.082Z,1.60
2018-09-24T08:16:06.761Z,1.70
2018-09-24T08:18:40.470Z,1.50
2018-09-24T08:21:13.949Z,1.90
2018-09-24T08:23:47.649Z,1.93
2018-09-24T08:26:21.313Z,2.03
2018-09-24T08:28:54.940Z,1.60
2018-09-24T08:31:28.435Z,1.90
2018-09-24T08:34:02.125Z,2.03
2018-09-24T08:36:35.906Z,2.10
2018-09-24T08:39:11.335Z,1.97
2018-09-24T08:41:45.089Z,1.70
2018-09-24T08:44:18.718Z,1.67
2018-09-24T08:46:52.434Z,1.80
2018-09-24T08:49:26.174Z,1.80
2018-09-24T08:51:59.833Z,1.50
2018-09-24T08:54:33.468Z,1.50
2018-09-24T08:57:06.993Z,1.27
2018-09-24T08:59:40.673Z,2.60
2018-09-24T09:02:14.194Z,1.73
2018-09-24T09:04:47.577Z,1.33
2018-09-24T09:07:21.254Z,1.93
2018-09-24T09:09:54.867Z,1.23
2018-09-24T09:12:28.570Z,1.47
2018-09-24T09:15:02.990Z,2.07
2018-09-24T09:17:36.698Z,1.33
2018-09-24T09:20:10.450Z,2.07
2018-09-24T09:22:43.881Z,1.37
2018-09-24T09:25:17.520Z,1.60
2018-09-24T09:27:51.142Z,1.53
2018-09-24T09:30:24.822Z,1.80
2018-09-24T09:32:58.325Z,1.50
2018-09-24T09:35:32.015Z,1.70
2018-09-24T09:38:05.515Z,1.63
2018-09-24T09:40:39.218Z,2.50
2018-09-24T09:43:12.818Z,1.60
2018-09-24T09:45:46.398Z,1.30
2018-09-24T09:48:19.877Z,1.90
2018-09-24T09:50:53.538Z,1.70
2018-09-24T09:53:26.998Z,1.30
2018-09-24T09:56:00.637Z,1.63
2018-09-24T09:58:34.225Z,1.63
2018-09-24T10:01:07.653Z,1.50
2018-09-24T10:03:41.178Z,1.30
2018-09-24T10:06:14.842Z,1.53
2018-09-24T10:08:48.419Z,1.80
2018-09-24T10:11:21.887Z,1.20
2018-09-24T10:13:55.325Z,1.40
2018-09-24T10:16:28.961Z,1.30
2018-09-24T10:19:02.663Z,1.50
2018-09-24T10:21:36.264Z,1.73
2018-09-24T10:24:09.780Z,1.70
2018-09-24T10:26:43.414Z,1.53
2018-09-24T10:29:17.085Z,1.70
2018-09-24T10:31:50.765Z,1.90
2018-09-24T10:34:24.290Z,1.20
2018-09-24T10:36:57.949Z,1.33
2018-09-24T10:39:31.691Z,1.83
2018-09-24T10:42:05.333Z,1.23
2018-09-24T10:44:38.985Z,1.20
2018-09-24T10:47:12.641Z,1.13
2018-09-24T10:49:46.290Z,1.90
2018-09-24T10:52:19.925Z,1.70
2018-09-24T10:54:53.366Z,1.33
2018-09-24T10:57:26.988Z,1.30
2018-09-24T11:00:00.636Z,1.30
2018-09-24T11:02:34.217Z,1.37
2018-09-24T11:05:07.871Z,1.30
2018-09-24T11:07:41.478Z,1.77
2018-09-24T11:10:15.147Z,1.20
2018-09-24T11:12:48.438Z,1.57
2018-09-24T11:15:22.062Z,1.57
2018-09-24T11:17:55.629Z,1.20
2018-09-24T11:20:29.251Z,1.27
2018-09-24T11:23:02.635Z,1.60
2018-09-24T11:25:36.286Z,1.67
2018-09-24T11:28:09.766Z,1.50
2018-09-24T11:30:43.393Z,1.53
2018-09-24T11:33:16.891Z,1.63
2018-09-24T11:35:50.473Z,1.20
2018-09-24T11:38:24.115Z,1.27
2018-09-24T11:40:57.662Z,1.93
2018-09-24T11:43:31.269Z,1.53
2018-09-24T11:46:04.782Z,1.87
2018-09-24T11:48:38.411Z,2.10
2018-09-24T11:51:12.053Z,2.10
2018-09-24T11:53:45.594Z,1.33
2018-09-24T11:56:19.154Z,1.60
2018-09-24T11:58:52.830Z,1.57
2018-09-24T12:01:26.554Z,1.37
2018-09-24T12:04:00.043Z,1.83
2018-09-24T12:06:33.535Z,1.00
2018-09-24T12:09:07.177Z,0.97
2018-09-24T12:11:40.769Z,1.13
2018-09-24T12:14:14.477Z,1.67
2018-09-24T12:16:48.010Z,1.37
2018-09-24T12:19:21.467Z,1.20
2018-09-24T12:21:54.870Z,1.00
2018-09-24T12:24:28.250Z,1.37
2018-09-24T12:27:01.899Z,1.57
2018-09-24T12:29:35.433Z,1.50
2018-09-24T12:32:08.827Z,1.33
2018-09-24T12:34:42.245Z,1.33
2018-09-24T12:37:15.911Z,1.70
2018-09-24T12:39:49.531Z,1.00
2018-09-24T12:42:23.269Z,1.53
2018-09-24T12:44:56.937Z,1.70
2018-09-24T12:47:30.574Z,1.37
2018-09-24T12:50:04.150Z,1.10
2018-09-24T12:52:37.741Z,1.10
2018-09-24T12:55:11.314Z,1.33
2018-09-24T12:57:44.977Z,1.53
2018-09-24T13:00:18.345Z,1.33
2018-09-24T13:02:51.738Z,1.23
2018-09-24T13:05:25.158Z,1.13
2018-09-24T13:07:58.602Z,1.70
2018-09-24T13:10:32.286Z,1.47
2018-09-24T13:13:05.809Z,1.40
2018-09-24T13:15:39.197Z,1.50
2018-09-24T13:18:12.765Z,1.57
2018-09-24T13:20:46.510Z,1.50
2018-09-24T13:23:20.194Z,0.90
2018-09-24T13:25:53.889Z,1.40
2018-09-24T13:28:27.333Z,1.80
2018-09-24T13:31:00.954Z,1.33
2018-09-24T13:33:34.333Z,1.30
2018-09-24T13:36:07.965Z,1.50
2018-09-24T13:38:41.533Z,1.03
2018-09-24T13:41:14.902Z,1.10
2018-09-24T13:43:48.590Z,1.57
2018-09-24T13:46:22.053Z,1.20
2018-09-24T13:48:55.714Z,1.73
2018-09-24T13:51:29.370Z,1.60
2018-09-24T13:54:02.813Z,1.37
2018-09-24T13:56:36.326Z,1.40
2018-09-24T13:59:09.961Z,1.60
2018-09-24T14:01:43.609Z,1.37
2018-09-24T14:04:17.237Z,1.50
2018-09-24T14:06:50.901Z,1.40
2018-09-24T14:09:24.550Z,1.30
2018-09-24T14:11:58.229Z,1.20
2018-09-24T14:14:31.773Z,1.57
2018-09-24T14:17:05.513Z,1.20
2018-09-24T14:19:39.106Z,1.60
2018-09-24T14:22:12.753Z,1.73
2018-09-24T14:24:46.418Z,1.30
2018-09-24T14:27:19.987Z,0.90
2018-09-24T14:29:53.653Z,1.27
2018-09-24T14:32:27.393Z,1.13
2018-09-24T14:35:00.918Z,1.13
2018-09-24T14:37:34.577Z,1.10
2018-09-24T14:40:08.125Z,1.20
2018-09-24T14:42:41.818Z,1.33
2018-09-24T14:45:15.157Z,1.20
2018-09-24T14:47:48.750Z,1.07
2018-09-24T14:50:22.374Z,1.03
2018-09-24T14:52:55.929Z,1.37
2018-09-24T14:55:29.558Z,1.60
2018-09-24T14:58:03.190Z,1.23
2018-09-24T15:00:36.565Z,1.40
2018-09-24T15:03:10.113Z,1.20
2018-09-24T15:05:43.448Z,1.40
2018-09-24T15:08:17.142Z,1.47
2018-09-24T15:10:50.534Z,1.00
2018-09-24T15:13:24.022Z,1.00
2018-09-24T15:15:57.469Z,1.20
2018-09-24T15:18:30.933Z,1.40
2018-09-24T15:21:04.645Z,1.00
2018-09-24T15:23:38.337Z,1.23
2018-09-24T15:26:11.849Z,1.43
2018-09-24T15:28:45.497Z,0.87
2018-09-24T15:31:19.025Z,0.90
2018-09-24T15:33:52.534Z,0.87
2018-09-24T15:36:25.894Z,1.43
2018-09-24T15:38:59.514Z,1.37
2018-09-24T15:41:33.206Z,1.30
2018-09-24T15:44:06.778Z,1.50
2018-09-24T15:46:40.314Z,1.03
2018-09-24T15:49:13.696Z,0.90
2018-09-24T15:51:47.277Z,2.07
2018-09-24T15:54:20.948Z,1.43
2018-09-24T15:56:54.542Z,1.00
2018-09-24T15:59:28.131Z,1.00
2018-09-24T16:02:01.569Z,1.70
2018-09-24T16:04:34.993Z,0.90
2018-09-24T16:07:08.445Z,1.27
2018-09-24T16:09:41.901Z,1.10
2018-09-24T16:12:15.554Z,1.23
2018-09-24T16:14:49.238Z,1.50
2018-09-24T16:17:22.614Z,2.30
2018-09-24T16:19:56.303Z,3.07
2018-09-24T16:22:29.914Z,2.80
2018-09-24T16:25:03.506Z,1.43
2018-09-24T16:27:37.009Z,2.37
2018-09-24T16:30:10.902Z,4.23
2018-09-24T16:32:44.570Z,1.73
2018-09-24T16:35:18.153Z,1.60
2018-09-24T16:37:51.809Z,1.33
2018-09-24T16:40:25.209Z,1.77
2018-09-24T16:42:58.881Z,1.00
2018-09-24T16:45:32.345Z,1.03
2018-09-24T16:48:05.934Z,1.10
2018-09-24T16:50:39.600Z,1.07
2018-09-24T16:53:13.092Z,1.07
2018-09-24T16:55:46.714Z,1.20
2018-09-24T16:58:20.390Z,1.40
2018-09-24T17:00:53.851Z,1.57
2018-09-24T17:03:27.620Z,1.33
2018-09-24T17:06:01.181Z,1.20
2018-09-24T17:08:34.690Z,1.20
2018-09-24T17:11:08.390Z,1.27
2018-09-24T17:13:41.925Z,1.03
2018-09-24T17:16:15.317Z,1.40
2018-09-24T17:18:48.813Z,1.23
2018-09-24T17:21:22.486Z,1.10
2018-09-24T17:23:55.897Z,1.40
2018-09-24T17:26:29.350Z,1.27
2018-09-24T17:29:03.040Z,1.13
2018-09-24T17:31:36.706Z,0.90
2018-09-24T17:34:10.311Z,1.13
2018-09-24T17:36:44.013Z,1.33
2018-09-24T17:39:17.485Z,2.10
2018-09-24T17:41:50.831Z,3.23
2018-09-24T17:44:24.478Z,3.50
2018-09-24T17:46:58.158Z,6.50
2018-09-24T17:49:31.737Z,11.27
2018-09-24T17:52:05.369Z,6.73
2018-09-24T17:54:38.818Z,4.40
2018-09-24T17:57:12.478Z,2.03
2018-09-24T17:59:46.234Z,1.47
2018-09-24T18:02:19.662Z,1.47
2018-09-24T18:04:53.234Z,2.10
2018-09-24T18:07:26.786Z,1.47
2018-09-24T18:10:00.499Z,1.33
2018-09-24T18:12:34.234Z,1.33
2018-09-24T18:15:07.734Z,1.30
2018-09-24T18:17:41.437Z,1.77
2018-09-24T18:20:15.383Z,1.70
2018-09-24T18:22:48.848Z,1.50
2018-09-24T18:25:22.522Z,1.40
2018-09-24T18:27:56.188Z,1.30
2018-09-24T18:30:29.830Z,1.43
2018-09-24T18:33:03.217Z,1.40
2018-09-24T18:35:36.892Z,1.23
2018-09-24T18:38:10.399Z,1.20
2018-09-24T18:40:43.813Z,1.43
2018-09-24T18:43:17.409Z,1.50
2018-09-24T18:45:51.058Z,1.20
2018-09-24T18:48:24.673Z,1.70
2018-09-24T18:50:58.270Z,1.63
2018-09-24T18:53:31.978Z,1.20
2018-09-24T18:56:05.476Z,1.30
2018-09-24T18:58:39.157Z,1.23
2018-09-24T19:01:13.166Z,1.40
2018-09-24T19:03:46.577Z,1.30
2018-09-24T19:06:20.053Z,1.17
2018-09-24T19:08:53.778Z,1.80
2018-09-24T19:11:27.967Z,1.33
2018-09-24T19:14:00.990Z,1.20
2018-09-24T19:16:34.717Z,1.40
2018-09-24T19:19:08.349Z,1.43
2018-09-24T19:21:41.989Z,1.53
2018-09-24T19:24:15.610Z,1.20
2018-09-24T19:26:49.090Z,1.60
2018-09-24T19:29:22.670Z,1.60
2018-09-24T19:31:56.372Z,1.30
2018-09-24T19:34:30.035Z,1.10
2018-09-24T19:37:03.510Z,1.70
2018-09-24T19:39:36.986Z,1.43
2018-09-24T19:42:10.390Z,1.00
2018-09-24T19:44:44.103Z,1.30
2018-09-24T19:47:17.526Z,1.20
2018-09-24T19:49:51.129Z,1.27
2018-09-24T19:52:24.629Z,1.30
2018-09-24T19:54:58.300Z,1.30
2018-09-24T19:57:32.015Z,1.50
2018-09-24T20:00:05.502Z,1.37
2018-09-24T20:02:39.122Z,1.70
2018-09-24T20:05:12.781Z,1.37
2018-09-24T20:07:46.310Z,1.37
2018-09-24T20:10:19.788Z,1.90
2018-09-24T20:12:53.469Z,1.47
2018-09-24T20:15:27.098Z,1.30
2018-09-24T20:18:00.653Z,1.03
2018-09-24T20:20:34.042Z,2.53
2018-09-24T20:23:07.481Z,2.70
2018-09-24T20:25:41.070Z,4.07
2018-09-24T20:28:14.653Z,1.73
2018-09-24T20:30:48.361Z,1.83
2018-09-24T20:33:22.034Z,1.65
2018-09-24T20:35:55.707Z,1.80
2018-09-24T20:38:29.400Z,1.90
2018-09-24T20:41:03.053Z,1.90
2018-09-24T20:43:36.693Z,1.77
2018-09-24T20:46:10.434Z,1.30
2018-09-24T20:48:44.058Z,1.57
2018-09-24T20:51:17.571Z,1.20
2018-09-24T20:53:51.217Z,1.33
2018-09-24T20:56:24.642Z,1.37
2018-09-24T20:58:58.275Z,1.80
2018-09-24T21:01:31.933Z,1.30
2018-09-24T21:04:05.439Z,1.50
2018-09-24T21:09:14.495Z,1.60
2018-09-24T21:11:48.173Z,1.80
2018-09-24T21:14:21.701Z,1.53
2018-09-24T21:16:55.239Z,1.47
2018-09-24T21:19:28.814Z,1.80
2018-09-24T21:22:02.427Z,1.50
2018-09-24T21:24:35.888Z,1.73
2018-09-24T21:37:21.376Z,2.00
2018-09-24T21:39:55.044Z,1.70
2018-09-24T21:42:28.658Z,1.23
2018-09-24T21:45:02.160Z,1.90
2018-09-24T21:47:35.617Z,1.30
2018-09-24T21:50:09.356Z,1.70
2018-09-24T21:52:42.949Z,1.63
2018-09-24T21:55:16.374Z,1.87
2018-09-24T21:57:49.755Z,1.30
2018-09-24T22:00:23.161Z,1.63
2018-09-24T22:03:03.718Z,1.30
2018-09-24T22:05:37.445Z,1.50
2018-09-24T22:08:11.150Z,1.33
2018-09-24T22:10:44.629Z,1.77
2018-09-24T22:13:18.304Z,1.90
2018-09-24T22:15:51.690Z,2.43
2018-09-24T22:18:25.317Z,1.50
2018-09-24T22:20:58.794Z,1.90
2018-09-24T22:23:32.125Z,1.80
2018-09-24T22:26:05.710Z,1.47
2018-09-24T22:28:39.394Z,1.73
2018-09-24T22:31:13.013Z,1.67
2018-09-24T22:33:46.546Z,1.67
2018-09-24T22:36:20.026Z,1.60
2018-09-24T22:38:53.682Z,2.20
2018-09-24T22:41:27.281Z,1.80
2018-09-24T22:44:00.894Z,1.90
2018-09-24T22:46:34.320Z,2.00
2018-09-24T22:49:07.725Z,1.97
2018-09-24T22:51:41.401Z,1.80
2018-09-24T22:54:14.885Z,2.07
2018-09-24T22:56:48.481Z,1.90
2018-09-24T22:59:22.146Z,1.83
2018-09-24T23:01:55.541Z,1.70
2018-09-24T23:04:28.902Z,2.40
2018-09-24T23:07:02.550Z,1.80
2018-09-24T23:09:35.985Z,2.17
2018-09-24T23:12:09.632Z,2.03
2018-09-24T23:14:43.222Z,1.70
2018-09-24T23:17:16.617Z,1.80
2018-09-24T23:19:50.210Z,2.00
2018-09-24T23:22:23.806Z,1.57
2018-09-24T23:24:57.213Z,1.90
2018-09-24T23:27:30.813Z,1.83
2018-09-24T23:30:04.422Z,1.70
2018-09-24T23:32:38.122Z,1.90
2018-09-24T23:35:11.810Z,1.83
2018-09-24T23:37:45.183Z,1.20
2018-09-24T23:40:18.766Z,2.00
2018-09-24T23:42:52.293Z,1.60
2018-09-24T23:45:26.029Z,1.90
2018-09-24T23:47:59.625Z,2.10
2018-09-24T23:50:33.234Z,1.80
2018-09-24T23:53:06.770Z,1.90
2018-09-24T23:55:40.393Z,2.00
2018-09-24T23:58:13.992Z,1.50
